Аэропорт: Жезказган. Жезказган

ICAO: UAKD

METAR:
2020-06-04 03:30:00
UAKD 040330Z 04010MPS 7000 NSC 23/05 Q1006 R04/0///65 NOSIG RMK QFE721/0962
METAR:
2020-06-04 02:00:00
TAF UAKD 040200Z 0403/0412 03011MPS 9999 SCT030 BKN100 TEMPO 0403/0406 05013MPS TEMPO 0406/0412 03016MPS BKN020